Foster, Ohio
Current Conditions -  °F | °C
As of 8:53 AM on Wednesday 22 Oct 2014 (Local Time) from KHAO Reporting Station
Broken Clouds Broken Clouds  
Wind Chill: 41°   Ceiling: 3700
Heat Index: 44°   Visibility: 10mi
Dew Point: 39°   Wind: 6mph
Humidity: 82%   Direction: 350°N
Pressure: 30.29"   Gusts: NA
Location:  39.3164°N, 84.2265°W
Report Text: KHAO 221253Z AUTO 35005KT 10SM BKN037 07/04 A3029 RMK AO2 SLP261 T00670039
Loading
Personal Weather Stations






























Interactive Weather Map
Tropical Storm Tracking
New forecast layout! Learn more

10-Day Weather Forecast

Advertisements
Track Severe Weather on mobile